< < Back
Terminal Aerodrome Forecast


Current Version              Previous Versions:   1  2  3  4  5  6  7  8  9  

Terminal Aerodrome Forecast

543
FTUS42 KTAE 281100
TAFDHN
TAF
KDHN 281120Z 2812/0112 03006KT P6SM SCT050 BKN200
     FM281300 06010KT P6SM SCT025 OVC050
     FM281700 06012KT P6SM VCSH OVC025
     FM010100 07010KT P6SM OVC015
     FM010600 06009KT P6SM OVC007=

Latest METAR

459
SAUS70 KWBC 281400 RRD
MTRDHN
METAR KDHN 281353Z 05011KT 10SM CLR 07/01 A3049 RMK AO2 SLP325
T00670011


USA.gov is the U.S. government's official web portal to all federal, state and local government web resources and services.